Terminal Aerodrome Forecast
Issued by NWS

Current Version | Previous Version | Text Only | Print | Product List | Glossary On
Versions: 1 2 3 4 5 6 7 8 9 10 11 12 13 14 15
000 FTUS41 KBTV 292320 TAFMPV TAF KMPV 292320Z 3000/3024 VRB03KT P6SM SCT140 FM301800 34007KT P6SM SKC FM302300 VRB03KT P6SM FEW250=

USA.gov is the U.S. government's official web portal to all federal, state and local government web resources and services.